createdAt,value
2023-04-22T00:02:27.062Z,9.67
2023-04-22T00:05:10.742Z,9.64
2023-04-22T00:07:48.864Z,9.61
2023-04-22T00:10:35.718Z,9.57
2023-04-22T00:13:36.992Z,9.57
2023-04-22T00:17:02.345Z,9.57
2023-04-22T00:19:44.090Z,9.56
2023-04-22T00:22:31.571Z,9.53
2023-04-22T00:25:08.429Z,9.50
2023-04-22T00:28:09.189Z,9.48
2023-04-22T00:31:27.132Z,9.43
2023-04-22T00:34:09.845Z,9.37
2023-04-22T00:36:46.937Z,9.33
2023-04-22T00:39:26.511Z,9.31
2023-04-22T00:42:19.163Z,9.30
2023-04-22T00:45:07.284Z,9.29
2023-04-22T00:48:21.304Z,9.27
2023-04-22T00:54:34.748Z,9.28
2023-04-22T00:57:41.784Z,9.25
2023-04-22T01:00:18.601Z,9.25
2023-04-22T01:02:58.516Z,9.28
2023-04-22T01:05:42.726Z,9.29
2023-04-22T01:08:25.805Z,9.32
2023-04-22T01:11:15.727Z,9.36
2023-04-22T01:13:58.183Z,9.33
2023-04-22T01:20:00.480Z,9.30
2023-04-22T01:22:52.547Z,9.31
2023-04-22T01:25:28.921Z,9.32
2023-04-22T01:28:06.382Z,9.32
2023-04-22T01:31:00.700Z,9.32
2023-04-22T01:34:01.722Z,9.32
2023-04-22T01:37:01.884Z,9.28
2023-04-22T01:39:47.042Z,9.24
2023-04-22T01:42:48.736Z,9.23
2023-04-22T01:45:31.490Z,9.24
2023-04-22T01:48:03.584Z,9.25
2023-04-22T01:51:27.157Z,9.26
2023-04-22T01:54:14.226Z,9.29
2023-04-22T01:56:51.571Z,9.30
2023-04-22T01:59:49.980Z,9.30
2023-04-22T02:02:26.323Z,9.31
2023-04-22T02:05:44.925Z,9.30
2023-04-22T02:08:31.257Z,9.27
2023-04-22T02:11:39.169Z,9.25
2023-04-22T02:14:14.881Z,9.23
2023-04-22T02:16:47.535Z,9.22
2023-04-22T02:20:02.290Z,9.22
2023-04-22T02:22:50.167Z,9.22
2023-04-22T02:25:28.898Z,9.19
2023-04-22T02:28:02.960Z,9.17
2023-04-22T02:30:40.177Z,9.17
2023-04-22T02:33:16.363Z,9.15
2023-04-22T02:35:51.306Z,9.15
2023-04-22T02:38:25.226Z,9.17
2023-04-22T02:41:22.557Z,9.16
2023-04-22T02:44:23.815Z,9.15
2023-04-22T02:48:13.932Z,9.16
2023-04-22T02:50:52.098Z,9.16
2023-04-22T02:53:48.876Z,9.15
2023-04-22T02:56:48.241Z,9.16
2023-04-22T02:59:40.658Z,9.15
2023-04-22T03:02:18.405Z,9.12
2023-04-22T03:05:32.928Z,9.11
2023-04-22T03:08:33.363Z,9.12
2023-04-22T03:11:06.022Z,9.11
2023-04-22T03:13:49.566Z,9.11
2023-04-22T03:16:22.942Z,9.12
2023-04-22T03:18:58.319Z,9.13
2023-04-22T03:22:09.183Z,9.15
2023-04-22T03:24:45.061Z,9.18
2023-04-22T03:27:45.199Z,9.17
2023-04-22T03:30:38.031Z,9.21
2023-04-22T03:34:20.096Z,9.23
2023-04-22T03:37:07.194Z,9.26
2023-04-22T03:39:58.082Z,9.28
2023-04-22T03:43:37.358Z,9.32
2023-04-22T03:46:23.666Z,9.40
2023-04-22T03:50:44.657Z,9.44
2023-04-22T03:54:08.792Z,9.49
2023-04-22T03:57:53.487Z,9.52
2023-04-22T04:00:45.923Z,9.56
2023-04-22T04:03:31.617Z,9.57
2023-04-22T04:06:08.461Z,9.61
2023-04-22T04:09:05.995Z,9.65
2023-04-22T04:12:38.495Z,9.68
2023-04-22T04:15:21.489Z,9.70
2023-04-22T04:17:58.686Z,9.71
2023-04-22T04:21:05.232Z,9.74
2023-04-22T04:23:53.212Z,9.76
2023-04-22T04:27:03.420Z,9.80
2023-04-22T04:29:47.116Z,9.86
2023-04-22T04:33:18.216Z,9.91
2023-04-22T04:36:22.372Z,9.99
2023-04-22T04:52:44.265Z,10.25
2023-04-22T04:56:04.028Z,10.31
2023-04-22T04:58:44.140Z,10.43
2023-04-22T05:01:58.938Z,10.50
2023-04-22T05:04:50.883Z,10.61
2023-04-22T05:07:44.244Z,10.70
2023-04-22T05:10:27.549Z,10.79
2023-04-22T05:17:44.600Z,10.91
2023-04-22T05:20:32.598Z,10.97
2023-04-22T05:23:26.717Z,11.03
2023-04-22T05:26:49.229Z,11.00
2023-04-22T05:41:55.987Z,11.44
2023-04-22T05:48:19.883Z,11.53
2023-04-22T05:52:00.547Z,11.62
2023-04-22T05:55:37.889Z,11.74
2023-04-22T06:06:40.042Z,12.08
2023-04-22T06:10:18.089Z,12.03
2023-04-22T06:13:43.892Z,11.94
2023-04-22T06:17:06.646Z,11.92
2023-04-22T06:20:04.530Z,11.96
2023-04-22T06:23:13.824Z,12.04
2023-04-22T06:26:18.391Z,12.13
2023-04-22T06:32:38.600Z,12.13
2023-04-22T06:43:20.651Z,12.16
2023-04-22T06:53:35.340Z,12.63
2023-04-22T06:57:51.834Z,12.90
2023-04-22T07:01:58.982Z,13.07
2023-04-22T07:05:20.269Z,13.19
2023-04-22T07:09:02.003Z,13.32
2023-04-22T07:23:22.905Z,13.11
2023-04-22T07:26:21.634Z,13.14
2023-04-22T07:29:29.394Z,13.16
2023-04-22T07:32:51.743Z,13.28
2023-04-22T07:36:30.542Z,13.35
2023-04-22T07:40:23.698Z,13.36
2023-04-22T07:43:51.902Z,13.31
2023-04-22T07:47:02.350Z,13.33
2023-04-22T07:50:29.579Z,13.37
2023-04-22T07:53:12.580Z,13.49
2023-04-22T07:56:09.268Z,13.56
2023-04-22T08:03:40.223Z,13.83
2023-04-22T08:07:42.901Z,13.90
2023-04-22T08:13:47.624Z,13.95
2023-04-22T08:20:39.474Z,14.10
2023-04-22T08:24:02.311Z,14.19
2023-04-22T08:28:00.313Z,14.17
2023-04-22T08:31:10.625Z,14.12
2023-04-22T08:37:13.963Z,13.99
2023-04-22T08:44:26.687Z,14.36
2023-04-22T08:47:27.069Z,14.35
2023-04-22T08:59:08.912Z,14.33
2023-04-22T09:09:15.175Z,14.50
2023-04-22T09:12:36.286Z,14.69
2023-04-22T09:16:11.225Z,14.79
2023-04-22T09:29:15.583Z,14.78
2023-04-22T09:36:48.333Z,14.79
2023-04-22T09:40:19.793Z,14.78
2023-04-22T09:43:09.532Z,14.79
2023-04-22T09:50:13.223Z,14.74
2023-04-22T09:53:32.155Z,14.70
2023-04-22T09:56:56.565Z,14.70
2023-04-22T09:59:41.639Z,14.75
2023-04-22T10:02:22.360Z,14.81
2023-04-22T10:05:40.212Z,14.92
2023-04-22T10:08:30.952Z,15.07
2023-04-22T10:11:27.568Z,15.14
2023-04-22T10:15:13.198Z,15.21
2023-04-22T10:18:12.021Z,15.35
2023-04-22T10:21:20.202Z,15.42
2023-04-22T10:24:16.614Z,15.51
2023-04-22T10:27:27.578Z,15.56
2023-04-22T10:30:59.554Z,15.62
2023-04-22T10:33:46.674Z,15.72
2023-04-22T10:36:25.129Z,15.75
2023-04-22T10:40:01.201Z,15.80
2023-04-22T10:43:27.842Z,15.90
2023-04-22T10:46:05.172Z,15.94
2023-04-22T10:49:55.029Z,15.98
2023-04-22T10:52:48.054Z,16.06
2023-04-22T10:55:27.570Z,16.10
2023-04-22T10:58:34.632Z,16.17
2023-04-22T11:01:33.961Z,16.22
2023-04-22T11:05:08.263Z,16.25
2023-04-22T11:07:47.509Z,16.39
2023-04-22T11:11:43.767Z,16.46
2023-04-22T11:14:36.923Z,16.64
2023-04-22T11:17:58.423Z,16.76
2023-04-22T11:21:29.085Z,16.88
2023-04-22T11:24:27.886Z,16.87
2023-04-22T11:27:27.396Z,16.81
2023-04-22T11:33:50.460Z,16.63
2023-04-22T11:36:58.068Z,16.75
2023-04-22T11:40:29.358Z,16.89
2023-04-22T11:43:08.271Z,17.00
2023-04-22T11:46:02.580Z,16.99
2023-04-22T11:49:17.736Z,17.08
2023-04-22T11:52:21.180Z,17.16
2023-04-22T12:04:12.983Z,17.13
2023-04-22T12:08:05.232Z,17.33
2023-04-22T12:10:51.959Z,17.47
2023-04-22T12:13:42.404Z,17.50
2023-04-22T12:16:46.782Z,17.59
2023-04-22T12:19:26.586Z,17.63
2023-04-22T12:22:33.695Z,17.57
2023-04-22T12:25:17.943Z,17.49
2023-04-22T12:28:22.889Z,17.44
2023-04-22T12:31:47.601Z,17.42
2023-04-22T12:34:41.457Z,17.48
2023-04-22T12:38:07.365Z,17.59
2023-04-22T12:41:22.511Z,17.71
2023-04-22T12:48:20.484Z,17.95
2023-04-22T12:51:31.716Z,17.84
2023-04-22T12:54:10.388Z,17.72
2023-04-22T12:56:54.697Z,17.57
2023-04-22T13:00:20.959Z,17.43
2023-04-22T13:03:17.531Z,17.28
2023-04-22T13:05:53.121Z,17.21
2023-04-22T13:09:26.292Z,17.13
2023-04-22T13:13:19.048Z,17.01
2023-04-22T13:16:40.924Z,16.85
2023-04-22T13:19:19.562Z,16.70
2023-04-22T13:23:03.092Z,16.57
2023-04-22T13:32:47.891Z,15.98
2023-04-22T13:35:24.775Z,15.82
2023-04-22T13:38:54.310Z,15.70
2023-04-22T13:49:58.209Z,15.62
2023-04-22T13:53:26.969Z,15.68
2023-04-22T13:56:32.866Z,15.76
2023-04-22T13:59:42.402Z,15.85
2023-04-22T20:53:44.283Z,12.40
2023-04-22T20:56:51.261Z,12.48
2023-04-22T20:59:23.184Z,12.44
2023-04-22T21:02:01.184Z,12.42
2023-04-22T21:04:35.266Z,12.43
2023-04-22T21:07:12.667Z,12.45
2023-04-22T21:09:58.841Z,12.47
2023-04-22T21:12:32.418Z,12.49
2023-04-22T21:15:04.786Z,12.49
2023-04-22T21:21:35.864Z,12.46
2023-04-22T21:24:23.280Z,12.46
2023-04-22T21:26:58.029Z,12.50
2023-04-22T21:29:27.512Z,12.52
2023-04-22T21:35:09.250Z,12.58
2023-04-22T21:37:43.377Z,12.58
2023-04-22T21:40:21.137Z,12.60
2023-04-22T21:42:56.614Z,12.59
2023-04-22T21:45:31.531Z,12.59
2023-04-22T21:48:12.762Z,12.60
2023-04-22T21:50:52.825Z,12.61
2023-04-22T21:53:28.352Z,12.62
2023-04-22T21:56:05.007Z,12.62
2023-04-22T21:58:41.657Z,12.63
2023-04-22T22:01:25.150Z,12.64
2023-04-22T22:04:06.677Z,12.65
2023-04-22T22:07:01.985Z,12.64
2023-04-22T22:10:06.319Z,12.68
2023-04-22T22:13:10.704Z,12.70
2023-04-22T22:15:46.878Z,12.72
2023-04-22T22:18:24.333Z,12.72
2023-04-22T22:21:08.554Z,12.71
2023-04-22T22:23:39.827Z,12.71
2023-04-22T22:26:36.734Z,12.71
2023-04-22T22:29:14.713Z,12.69
2023-04-22T22:31:52.089Z,12.68
2023-04-22T22:35:44.934Z,12.65
2023-04-22T22:38:18.779Z,12.63
2023-04-22T22:40:55.533Z,12.60
2023-04-22T22:43:39.889Z,12.60
2023-04-22T22:46:18.648Z,12.59
2023-04-22T22:48:54.627Z,12.54
2023-04-22T22:51:22.966Z,12.51
2023-04-22T22:53:55.414Z,12.50
2023-04-22T22:56:24.620Z,12.47
2023-04-22T22:59:29.889Z,12.46
2023-04-22T23:04:58.833Z,12.42
2023-04-22T23:07:32.660Z,12.40
2023-04-22T23:10:08.391Z,12.39
2023-04-22T23:12:51.483Z,12.34
2023-04-22T23:15:28.763Z,12.29
2023-04-22T23:17:59.228Z,12.27
2023-04-22T23:20:38.558Z,12.23
2023-04-22T23:23:11.287Z,12.20
2023-04-22T23:25:41.996Z,12.15
2023-04-22T23:28:19.468Z,12.11
2023-04-22T23:30:57.172Z,12.06
2023-04-22T23:33:30.267Z,12.05
2023-04-22T23:36:08.868Z,12.03
2023-04-22T23:39:09.401Z,12.01
2023-04-22T23:41:42.007Z,12.01
2023-04-22T23:44:16.290Z,12.01
2023-04-22T23:46:56.319Z,12.02
2023-04-22T23:49:28.185Z,12.02
2023-04-22T23:52:01.765Z,12.03
2023-04-22T23:54:36.506Z,12.02
2023-04-22T23:57:07.774Z,12.00
2023-04-22T23:59:39.452Z,11.98
